Time;durP1;ratioP1;P1;durP2;ratioP2;P2;SDS_P1;SDS_P2;PMS_P1;PMS_P2;Temp;Humidity;BMP_temperature;BMP_pressure;BME280_temperature;BME280_humidity;BME280_pressure;Samples;Min_cycle;Max_cycle;Signal;HPM_P1;HPM_P2
2022/06/20 00:00:07;;;;;;;3.00;0.80;;;;;;;22.58;42.85;101374.59;5104854;28;20028;-60
2022/06/20 00:02:37;;;;;;;4.25;0.93;;;;;;;22.57;43.00;101365.63;5105277;28;20056;-60
2022/06/20 00:05:03;;;;;;;3.30;1.08;;;;;;;22.56;43.11;101355.81;5086897;28;20230;-60
2022/06/20 00:07:28;;;;;;;3.47;0.80;;;;;;;22.56;43.10;101368.53;5087082;28;20024;-59
2022/06/20 00:09:54;;;;;;;2.80;0.82;;;;;;;22.54;42.83;101382.22;5106228;28;20119;-59
2022/06/20 00:12:22;;;;;;;2.28;0.90;;;;;;;22.54;43.10;101375.97;5125267;28;20039;-59
2022/06/20 00:14:48;;;;;;;4.50;1.02;;;;;;;22.54;42.86;101382.22;5125071;28;20127;-60
2022/06/20 00:17:14;;;;;;;3.35;1.13;;;;;;;22.53;42.87;101377.00;5104693;28;20028;-58
2022/06/20 00:19:42;;;;;;;2.80;0.77;;;;;;;22.52;43.18;101387.00;5105217;28;20122;-59
2022/06/20 00:22:08;;;;;;;2.88;0.98;;;;;;;22.50;43.14;101386.34;5105806;28;20027;-59
2022/06/20 00:24:33;;;;;;;2.58;0.80;;;;;;;22.50;43.00;101396.34;5105141;28;20028;-59
2022/06/20 00:26:58;;;;;;;2.40;0.95;;;;;;;22.49;42.97;101394.66;5104978;28;20035;-59
2022/06/20 00:29:24;;;;;;;2.83;0.90;;;;;;;22.49;42.94;101383.81;5104444;28;20092;-58
2022/06/20 00:31:49;;;;;;;2.17;1.00;;;;;;;22.47;42.93;101392.09;5105023;28;20079;-60
2022/06/20 00:34:14;;;;;;;2.72;0.90;;;;;;;22.47;42.87;101378.56;5104663;28;20028;-59
2022/06/20 00:36:40;;;;;;;3.50;1.08;;;;;;;22.44;43.03;101368.94;5105013;28;20077;-59
2022/06/20 00:39:06;;;;;;;2.92;0.82;;;;;;;22.33;43.16;101347.69;5106370;28;20035;-59
2022/06/20 00:41:32;;;;;;;2.45;0.77;;;;;;;22.43;42.79;101361.84;5108779;28;20486;-56
2022/06/20 00:43:58;;;;;;;2.88;1.02;;;;;;;22.40;43.06;101361.34;5108534;28;20071;-59
2022/06/20 00:46:29;;;;;;;4.35;0.85;;;;;;;22.43;43.03;101363.72;5090143;28;20488;-59
2022/06/20 00:49:03;;;;;;;1.88;0.73;;;;;;;22.42;43.35;101353.88;5108663;28;20024;-59
2022/06/20 00:51:35;;;;;;;4.43;0.93;;;;;;;22.41;43.04;101349.47;5090790;28;20023;-59
2022/06/20 00:54:15;;;;;;;2.65;0.70;;;;;;;22.40;43.00;101370.31;5090088;28;20024;-59
2022/06/20 00:56:50;;;;;;;3.53;0.90;;;;;;;22.38;43.01;101380.47;5108791;28;20034;-59
2022/06/20 00:59:19;;;;;;;2.55;0.70;;;;;;;22.36;42.97;101385.25;5090769;28;20030;-59
2022/06/20 01:01:44;;;;;;;2.30;0.80;;;;;;;22.36;43.33;101376.28;5093949;28;20165;-59
2022/06/20 01:04:14;;;;;;;3.70;0.90;;;;;;;22.32;42.99;101369.53;5099696;28;20027;-59
2022/06/20 01:06:46;;;;;;;3.58;1.38;;;;;;;22.34;43.20;101389.16;5098940;28;20083;-59
2022/06/20 01:09:13;;;;;;;2.95;0.90;;;;;;;22.34;42.93;101386.44;5110398;28;20081;-59
2022/06/20 01:11:48;;;;;;;2.40;0.90;;;;;;;22.32;43.21;101383.91;5095493;28;20049;-60
2022/06/20 01:14:37;;;;;;;2.33;0.80;;;;;;;22.32;43.50;101394.75;5089639;28;20047;-60
2022/06/20 01:17:06;;;;;;;3.42;1.13;;;;;;;22.30;43.37;101383.28;5108296;28;20038;-59
2022/06/20 01:19:44;;;;;;;2.35;0.77;;;;;;;22.29;43.04;101381.56;5099037;28;20084;-59
2022/06/20 01:22:23;;;;;;;2.03;1.00;;;;;;;22.27;43.30;101386.34;5128512;28;20020;-60
2022/06/20 01:24:58;;;;;;;2.85;0.82;;;;;;;22.27;43.14;101388.19;5109963;28;20058;-60
2022/06/20 01:27:36;;;;;;;3.30;0.82;;;;;;;22.26;43.09;101390.06;5110203;28;20097;-58
2022/06/20 01:30:01;;;;;;;1.83;0.75;;;;;;;22.25;43.37;101399.19;5106209;28;20028;-60
2022/06/20 01:32:27;;;;;;;3.63;0.75;;;;;;;22.24;43.17;101394.81;5107984;28;20028;-59
2022/06/20 01:34:52;;;;;;;4.07;1.27;;;;;;;22.25;43.39;101401.06;5107698;28;20081;-60
2022/06/20 01:37:29;;;;;;;2.90;1.10;;;;;;;22.23;43.05;101406.69;5122695;28;20060;-59
2022/06/20 01:40:11;;;;;;;1.83;0.80;;;;;;;22.23;43.36;101417.50;5111086;28;20027;-60
2022/06/20 01:42:37;;;;;;;2.15;0.70;;;;;;;22.22;43.45;101410.41;5127558;28;20051;-60
2022/06/20 01:45:57;;;;;;;3.25;0.85;;;;;;;22.21;43.52;101430.38;5109596;28;20520;-60
2022/06/20 01:47:52;;;;;;;1.83;0.63;;;;;;;22.19;43.18;101446.81;5118012;28;20030;-60
2022/06/20 01:50:17;;;;;;;2.55;0.82;;;;;;;22.13;43.31;101442.13;5088609;28;20048;-60
2022/06/20 01:52:44;;;;;;;3.25;0.93;;;;;;;22.18;43.30;101463.25;5107724;28;20032;-60
2022/06/20 01:55:15;;;;;;;2.40;0.80;;;;;;;22.19;43.43;101471.19;5107162;28;20092;-59
2022/06/20 01:57:42;;;;;;;1.80;0.60;;;;;;;22.14;43.27;101473.59;5107413;28;20054;-60
2022/06/20 02:00:10;;;;;;;2.55;0.82;;;;;;;22.19;43.41;101492.00;5106912;28;20023;-61
2022/06/20 02:02:39;;;;;;;2.53;0.85;;;;;;;22.12;43.56;101472.03;5107661;28;20075;-60
2022/06/20 02:05:06;;;;;;;1.63;0.70;;;;;;;22.17;43.67;101477.78;5089046;28;20030;-60
2022/06/20 02:07:32;;;;;;;1.92;0.70;;;;;;;22.16;43.66;101479.66;5107220;28;20027;-60
2022/06/20 02:09:58;;;;;;;2.85;0.85;;;;;;;22.11;43.44;101471.19;5109712;28;20020;-60
2022/06/20 02:12:23;;;;;;;2.50;0.70;;;;;;;22.16;43.69;101476.94;5127331;28;20023;-59
2022/06/20 02:14:54;;;;;;;2.72;0.85;;;;;;;22.10;43.78;101468.66;5108792;28;20024;-60
2022/06/20 02:17:29;;;;;;;2.20;0.75;;;;;;;22.11;43.42;101473.91;5101647;28;20035;-60
2022/06/20 02:19:56;;;;;;;3.22;0.68;;;;;;;22.15;43.61;101480.69;5106757;28;20164;-60
2022/06/20 02:22:24;;;;;;;1.95;0.68;;;;;;;22.08;43.71;101454.44;5106915;28;20023;-60
2022/06/20 02:24:53;;;;;;;2.95;0.80;;;;;;;22.14;43.63;101465.47;5106531;28;20032;-60
2022/06/20 02:27:22;;;;;;;3.60;1.17;;;;;;;22.13;43.75;101454.78;5088756;28;20050;-59
2022/06/20 02:29:48;;;;;;;4.15;0.90;;;;;;;22.05;43.69;101438.56;5088024;28;20020;-59
2022/06/20 02:32:22;;;;;;;1.67;0.75;;;;;;;22.12;43.47;101445.81;5106765;28;20019;-60
2022/06/20 02:34:48;;;;;;;2.50;0.93;;;;;;;22.11;43.88;101448.69;5088324;28;20022;-60
2022/06/20 02:37:20;;;;;;;2.42;0.75;;;;;;;22.11;43.91;101445.97;5106681;28;20043;-60
2022/06/20 02:39:47;;;;;;;2.78;1.15;;;;;;;22.10;43.90;101439.72;5088907;28;20120;-60
2022/06/20 02:42:17;;;;;;;1.48;0.80;;;;;;;22.10;43.51;101445.13;5088120;28;20035;-60
2022/06/20 02:44:45;;;;;;;2.88;0.90;;;;;;;22.09;43.72;101440.75;5087583;28;20031;-59
2022/06/20 02:47:10;;;;;;;3.25;1.25;;;;;;;22.09;43.92;101448.00;5071817;28;20027;-59
2022/06/20 02:49:36;;;;;;;2.13;0.80;;;;;;;22.08;43.66;101436.31;5106922;28;20381;-60
2022/06/20 02:52:04;;;;;;;2.35;0.93;;;;;;;22.06;43.97;101435.69;5088142;28;20028;-60
2022/06/20 02:54:33;;;;;;;3.20;0.95;;;;;;;22.07;43.75;101439.22;5087605;28;20024;-60
2022/06/20 02:57:03;;;;;;;2.90;0.80;;;;;;;22.06;43.92;101440.25;5106229;28;20054;-60
2022/06/20 02:59:33;;;;;;;3.90;0.90;;;;;;;22.05;43.96;101433.16;5087783;28;20039;-58
2022/06/20 03:02:04;;;;;;;3.00;0.90;;;;;;;22.06;44.03;101434.84;5087772;28;20024;-60
2022/06/20 03:04:32;;;;;;;3.47;0.90;;;;;;;22.04;43.94;101432.28;5087950;28;20049;-59
2022/06/20 03:07:01;;;;;;;1.60;0.70;;;;;;;22.04;43.94;101428.75;5106303;28;20031;-60
2022/06/20 03:09:30;;;;;;;2.13;0.77;;;;;;;22.04;43.79;101434.16;5087439;28;20055;-60
2022/06/20 03:11:56;;;;;;;1.77;0.70;;;;;;;22.02;44.09;101425.38;5106970;28;20046;-60
2022/06/20 03:14:29;;;;;;;2.72;0.80;;;;;;;22.00;44.18;101420.13;5125791;28;20400;-60
2022/06/20 03:16:56;;;;;;;2.97;0.80;;;;;;;22.02;43.94;101417.25;5107156;28;20020;-60
2022/06/20 03:19:27;;;;;;;2.60;0.77;;;;;;;22.02;44.37;101419.97;5107898;28;20039;-60
2022/06/20 03:21:55;;;;;;;3.22;1.23;;;;;;;22.01;44.05;101419.13;5108321;28;20459;-60
2022/06/20 03:24:21;;;;;;;2.65;0.75;;;;;;;22.00;43.97;101403.88;5107567;28;20052;-60
2022/06/20 03:26:47;;;;;;;3.70;0.90;;;;;;;21.92;44.14;101379.56;5108020;28;20038;-60
2022/06/20 03:29:15;;;;;;;2.58;0.95;;;;;;;21.96;44.25;101387.16;5107933;28;20030;-60
2022/06/20 03:31:41;;;;;;;2.75;0.85;;;;;;;21.91;44.38;101373.28;5125827;28;20024;-60
2022/06/20 03:34:07;;;;;;;2.75;0.70;;;;;;;21.99;44.22;101387.81;5125776;28;20028;-59
2022/06/20 03:36:34;;;;;;;3.42;0.90;;;;;;;21.98;44.48;101392.41;5125726;28;20518;-60
2022/06/20 03:38:59;;;;;;;3.17;0.82;;;;;;;;;;5095793;28;20028;-60
2022/06/20 03:41:26;;;;;;;2.95;0.90;;;;;;;21.92;44.37;101363.34;5105381;28;20028;-60
2022/06/20 03:44:01;;;;;;;2.50;0.90;;;;;;;21.96;44.23;101373.63;5086612;28;20074;-60
2022/06/20 03:46:33;;;;;;;5.47;1.15;;;;;;;21.92;44.36;101371.47;5104808;28;20075;-59
2022/06/20 03:49:03;;;;;;;3.50;1.70;;;;;;;21.95;44.47;101376.50;5087528;28;20024;-60
2022/06/20 03:51:35;;;;;;;4.68;1.08;;;;;;;21.88;44.12;101364.72;5105312;28;20048;-60
2022/06/20 03:54:08;;;;;;;3.00;0.95;;;;;;;21.89;44.21;101361.81;5087186;28;20028;-60
2022/06/20 03:56:41;;;;;;;2.75;0.85;;;;;;;21.93;44.23;101360.44;5105507;28;20115;-60
2022/06/20 03:59:36;;;;;;;2.40;0.98;;;;;;;21.92;44.54;101353.34;5087143;28;20083;-59
2022/06/20 04:02:24;;;;;;;2.47;0.90;;;;;;;21.92;44.52;101344.38;5083947;28;20055;-60
2022/06/20 04:05:14;;;;;;;2.78;1.00;;;;;;;21.91;44.52;101342.66;5105240;28;20074;-60
2022/06/20 04:07:59;;;;;;;3.58;1.08;;;;;;;21.90;44.51;101335.59;5105233;28;20087;-60
2022/06/20 04:10:58;;;;;;;2.67;0.80;;;;;;;21.89;44.49;101334.75;5089912;28;20032;-60
2022/06/20 04:13:46;;;;;;;1.88;0.70;;;;;;;21.89;44.20;101328.50;5105390;28;20469;-60
2022/06/20 04:16:14;;;;;;;2.25;0.80;;;;;;;21.88;44.29;101326.81;5108900;28;20042;-60
2022/06/20 04:18:48;;;;;;;4.15;0.98;;;;;;;21.88;44.44;101324.09;5109301;28;20024;-60
2022/06/20 04:21:23;;;;;;;2.70;0.90;;;;;;;21.88;44.53;101324.09;5109388;28;20039;-60
2022/06/20 04:24:10;;;;;;;2.60;0.77;;;;;;;21.88;44.59;101326.81;5090729;28;20085;-60
2022/06/20 04:26:42;;;;;;;2.85;0.80;;;;;;;21.88;44.48;101334.94;5109266;28;20049;-60
2022/06/20 04:29:17;;;;;;;2.78;0.77;;;;;;;21.87;44.40;101333.22;5108782;28;20016;-60
2022/06/20 04:31:47;;;;;;;2.70;1.00;;;;;;;21.87;44.51;101342.19;5090761;28;20023;-60
2022/06/20 04:34:16;;;;;;;4.22;0.75;;;;;;;21.86;44.19;101348.63;5108996;28;20024;-60
2022/06/20 04:36:46;;;;;;;;;;;;;;;21.86;44.23;101361.31;5109477;28;20024;-59
2022/06/20 04:39:20;;;;;;;3.55;0.95;;;;;;;21.84;44.30;101357.97;5090652;28;20353;-59
2022/06/20 04:41:52;;;;;;;2.45;0.90;;;;;;;21.86;44.54;101361.31;5090496;28;20032;-57
2022/06/20 04:45:07;;;;;;;3.25;1.25;;;;;;;21.85;44.59;101367.75;5090106;28;20089;-59
2022/06/20 04:47:58;;;;;;;3.95;1.00;;;;;;;21.84;44.59;101363.38;5087670;28;20054;-59
2022/06/20 04:50:28;;;;;;;3.05;0.80;;;;;;;21.83;44.44;101367.91;5090358;28;20036;-60
2022/06/20 04:52:59;;;;;;;2.67;0.77;;;;;;;21.82;44.66;101376.22;5108835;28;20051;-60
2022/06/20 04:55:26;;;;;;;3.40;1.40;;;;;;;21.76;44.50;101366.97;5108315;28;20107;-59
2022/06/20 04:57:53;;;;;;;2.53;1.10;;;;;;;21.72;44.79;101357.50;5090259;28;20032;-59
2022/06/20 05:00:21;;;;;;;4.13;1.30;;;;;;;21.81;44.20;101383.50;5107896;28;20028;-60
2022/06/20 05:02:48;;;;;;;2.47;0.77;;;;;;;21.81;44.49;101388.06;5090379;28;20106;-58
2022/06/20 05:05:20;;;;;;;3.72;0.98;;;;;;;21.81;44.33;101383.50;5089292;28;20028;-59
2022/06/20 05:07:46;;;;;;;2.55;0.88;;;;;;;21.80;44.28;101392.66;5088416;28;20050;-59
2022/06/20 05:10:19;;;;;;;4.20;1.73;;;;;;;21.81;44.44;101401.63;5094653;28;20023;-59
2022/06/20 05:13:03;;;;;;;2.53;0.95;;;;;;;21.82;44.35;101392.47;5109994;28;20027;-59
2022/06/20 05:15:41;;;;;;;3.30;1.08;;;;;;;21.82;44.55;101403.28;5109776;28;20058;-59
2022/06/20 05:18:20;;;;;;;2.50;1.25;;;;;;;21.80;44.52;101403.47;5128493;28;20028;-59
2022/06/20 05:20:46;;;;;;;2.92;0.90;;;;;;;21.81;44.13;101407.03;5109990;28;20095;-59
2022/06/20 05:23:15;;;;;;;2.03;1.15;;;;;;;21.80;44.26;101408.91;5128408;28;20023;-60
2022/06/20 05:25:41;;;;;;;3.30;1.15;;;;;;;21.81;44.49;101415.16;5108342;28;20027;-59
2022/06/20 05:28:12;;;;;;;2.47;1.00;;;;;;;21.81;44.22;101416.00;5110002;28;20464;-58
2022/06/20 05:30:39;;;;;;;5.00;1.50;;;;;;;21.81;44.19;101420.56;5109435;28;20047;-60
2022/06/20 05:33:21;;;;;;;3.15;0.85;;;;;;;21.78;44.31;101410.91;5110166;28;20037;-59
2022/06/20 05:35:51;;;;;;;4.07;1.92;;;;;;;21.82;44.10;101406.84;5092850;28;20024;-59
2022/06/20 05:38:25;;;;;;;1.55;0.88;;;;;;;21.82;44.29;101414.97;5103041;28;20074;-60
2022/06/20 05:40:53;;;;;;;2.00;1.00;;;;;;;21.82;44.17;101412.25;5089596;28;20028;-59
2022/06/20 05:43:20;;;;;;;2.85;0.88;;;;;;;21.82;44.30;101412.25;5088702;28;20036;-59
2022/06/20 05:45:48;;;;;;;3.85;0.90;;;;;;;21.83;44.13;101408.53;5106598;28;20083;-59
2022/06/20 05:48:14;;;;;;;;;;;;;;;21.82;43.82;101409.53;5089858;28;20020;-60
2022/06/20 05:50:48;;;;;;;2.72;0.93;;;;;;;21.82;44.03;101411.41;5089538;28;19908;-60
2022/06/20 05:53:24;;;;;;;3.75;1.02;;;;;;;21.81;43.85;101418.69;5107448;28;20027;-60
2022/06/20 05:55:50;;;;;;;2.75;0.85;;;;;;;21.80;43.92;101425.13;5089646;28;20020;-60
2022/06/20 05:58:25;;;;;;;3.38;1.35;;;;;;;21.80;43.63;101429.72;5089139;28;20035;-60
2022/06/20 06:00:52;;;;;;;2.95;0.93;;;;;;;21.79;43.70;101434.28;5088888;28;20035;-60
2022/06/20 06:03:22;;;;;;;3.70;1.13;;;;;;;21.79;43.82;101445.09;5089258;28;20099;-60
2022/06/20 06:05:56;;;;;;;4.22;1.23;;;;;;;21.78;43.89;101435.28;5089004;28;20020;-60
2022/06/20 06:08:29;;;;;;;3.85;1.13;;;;;;;21.79;43.83;101449.66;5107139;28;20020;-60
2022/06/20 06:11:12;;;;;;;4.57;1.95;;;;;;;21.78;43.59;101461.50;5117774;28;20031;-60
2022/06/20 06:13:41;;;;;;;2.60;0.90;;;;;;;21.77;43.64;101468.78;5127038;28;20037;-60
2022/06/20 06:19:05;;;;;;;2.50;1.00;;;;;;;21.77;43.39;101465.25;5111790;28;20031;-60
2022/06/20 06:21:31;;;;;;;3.67;1.30;;;;;;;21.78;43.39;101466.91;5108811;28;20026;-59
2022/06/20 06:23:58;;;;;;;2.65;0.98;;;;;;;21.77;43.83;101462.53;5126893;28;20023;-60
2022/06/20 06:26:23;;;;;;;2.92;1.00;;;;;;;21.76;43.58;101468.97;5127043;28;20036;-60
2022/06/20 06:28:50;;;;;;;3.67;1.58;;;;;;;21.77;43.74;101473.34;5108700;28;20019;-58
2022/06/20 06:31:28;;;;;;;3.38;0.90;;;;;;;21.77;43.43;101470.66;5108330;28;20023;-60
2022/06/20 06:34:04;;;;;;;3.03;1.27;;;;;;;21.77;43.74;101465.25;5108940;28;20032;-60
2022/06/20 06:36:35;;;;;;;3.13;1.08;;;;;;;21.78;43.59;101467.75;5108406;28;20086;-60
2022/06/20 06:39:29;;;;;;;2.38;0.93;;;;;;;21.79;43.51;101471.31;5093588;28;20059;-60
2022/06/20 06:42:00;;;;;;;2.85;1.13;;;;;;;21.79;43.77;101474.88;5088295;28;20102;-60
2022/06/20 06:44:41;;;;;;;4.90;1.38;;;;;;;21.79;43.42;101472.19;5087982;28;20075;-57
2022/06/20 06:47:18;;;;;;;2.67;1.10;;;;;;;21.80;43.75;101467.59;5106147;28;20028;-59
2022/06/20 06:49:45;;;;;;;3.47;1.30;;;;;;;21.80;43.49;101473.03;5087988;28;20568;-60
2022/06/20 06:52:23;;;;;;;4.35;1.60;;;;;;;21.81;43.49;101474.69;5106275;28;20020;-60
2022/06/20 06:54:56;;;;;;;3.10;1.00;;;;;;;21.81;43.76;101477.41;5087646;28;20020;-59
2022/06/20 06:57:44;;;;;;;1.95;1.02;;;;;;;21.81;43.57;101480.13;5088020;28;20031;-60
2022/06/20 07:00:19;;;;;;;2.70;1.58;;;;;;;21.80;43.53;101481.97;5094293;28;20059;-60
2022/06/20 07:02:52;;;;;;;3.60;1.13;;;;;;;21.80;43.71;101481.13;5105865;28;20016;-60
2022/06/20 07:05:24;;;;;;;2.92;1.30;;;;;;;21.78;43.48;101473.16;5087484;28;20044;-60
2022/06/20 07:07:59;;;;;;;2.75;1.08;;;;;;;21.80;43.23;101481.13;5088255;28;20099;-60
2022/06/20 07:10:30;;;;;;;3.20;1.30;;;;;;;21.79;43.39;101483.00;5094016;28;20019;-60
2022/06/20 07:13:00;;;;;;;4.45;1.58;;;;;;;21.78;43.11;101486.72;5107746;28;20027;-60
2022/06/20 07:15:26;;;;;;;3.38;1.40;;;;;;;21.72;43.25;101465.75;5125634;28;20023;-60
2022/06/20 07:17:54;;;;;;;6.93;2.15;;;;;;;21.78;43.01;101475.03;5126203;28;20060;-60
2022/06/20 07:20:22;;;;;;;2.88;1.48;;;;;;;21.77;43.13;101474.19;5126047;28;20020;-60
2022/06/20 07:22:48;;;;;;;2.70;1.33;;;;;;;21.77;43.10;101474.19;5107883;28;20027;-60
2022/06/20 07:25:23;;;;;;;3.85;1.45;;;;;;;21.79;43.13;101471.31;5125580;28;20031;-60
2022/06/20 07:27:57;;;;;;;3.35;1.50;;;;;;;21.80;43.10;101478.44;5107945;28;20060;-60
2022/06/20 07:30:26;;;;;;;2.60;1.10;;;;;;;21.79;43.06;101480.31;5125736;28;20023;-60
2022/06/20 07:32:53;;;;;;;;;;;;;;;21.79;43.32;101483.00;5108280;28;20035;-60
2022/06/20 07:35:28;;;;;;;3.20;1.60;;;;;;;21.81;43.38;101488.22;5107324;28;19929;-60
2022/06/20 07:38:00;;;;;;;2.70;1.30;;;;;;;21.76;43.41;101482.50;5100006;28;20040;-60
2022/06/20 07:40:37;;;;;;;3.47;1.35;;;;;;;21.82;43.29;101500.75;5105334;28;20043;-60
2022/06/20 07:43:09;;;;;;;4.53;1.70;;;;;;;21.80;43.42;101494.66;5105103;28;20055;-60
2022/06/20 07:45:40;;;;;;;3.28;1.30;;;;;;;21.82;43.19;101500.75;5104817;28;20039;-60
2022/06/20 07:48:24;;;;;;;2.47;1.20;;;;;;;21.82;43.41;101504.28;5104745;28;20109;-59
2022/06/20 07:50:54;;;;;;;4.78;1.63;;;;;;;21.79;43.33;101493.84;5087095;28;20081;-60
2022/06/20 07:53:33;;;;;;;3.30;1.30;;;;;;;21.82;43.07;101498.03;5087259;28;20050;-60
2022/06/20 07:56:04;;;;;;;4.13;1.80;;;;;;;21.79;43.13;101495.66;5104992;28;20089;-60
2022/06/20 07:58:32;;;;;;;3.92;1.80;;;;;;;21.82;43.55;101496.16;5105052;28;20035;-60
2022/06/20 08:00:58;;;;;;;4.45;1.70;;;;;;;21.84;43.35;101499.56;5086725;28;20080;-60
2022/06/20 08:03:38;;;;;;;3.45;1.45;;;;;;;21.85;43.48;101495.00;5087153;28;20452;-60
2022/06/20 08:06:30;;;;;;;4.82;2.13;;;;;;;21.87;43.34;101495.66;5104783;28;20041;-60
2022/06/20 08:09:00;;;;;;;5.95;1.70;;;;;;;21.88;43.13;101494.66;5096445;28;20036;-59
2022/06/20 08:11:54;;;;;;;2.85;1.50;;;;;;;21.90;42.97;101492.59;5101791;28;20122;-60
2022/06/20 08:14:51;;;;;;;5.60;1.73;;;;;;;21.89;42.87;101488.22;5106761;28;20083;-60
2022/06/20 08:17:16;;;;;;;3.75;1.80;;;;;;;21.90;43.21;101489.88;5108126;28;20070;-60
2022/06/20 08:19:43;;;;;;;5.05;1.92;;;;;;;21.89;43.05;101491.75;5125320;28;20023;-60
2022/06/20 08:22:16;;;;;;;4.32;1.63;;;;;;;21.91;43.21;101491.56;5125414;28;20058;-60
2022/06/20 08:24:49;;;;;;;3.80;1.83;;;;;;;21.92;42.99;101479.75;5106854;28;20027;-60
2022/06/20 08:27:29;;;;;;;3.03;1.42;;;;;;;21.92;43.04;101485.16;5107365;28;20035;-60
2022/06/20 08:30:09;;;;;;;5.75;1.98;;;;;;;21.89;42.67;101478.22;5106946;28;20031;-60
2022/06/20 08:33:00;;;;;;;4.43;2.15;;;;;;;21.91;42.56;101488.88;5107237;28;20024;-60
2022/06/20 08:35:43;;;;;;;4.45;1.70;;;;;;;21.95;42.90;101491.03;5124977;28;20035;-60
2022/06/20 08:38:27;;;;;;;3.38;1.58;;;;;;;21.96;42.62;101502.72;5124235;28;20038;-59
2022/06/20 08:41:10;;;;;;;3.78;1.98;;;;;;;21.98;42.85;101498.00;5124975;28;20066;-59
2022/06/20 08:44:00;;;;;;;5.63;1.83;;;;;;;21.99;42.65;101499.66;5106397;28;20073;-60
2022/06/20 08:46:53;;;;;;;5.05;2.13;;;;;;;22.01;42.56;101500.34;5106260;28;20040;-59
2022/06/20 08:49:59;;;;;;;7.15;1.88;;;;;;;22.02;42.67;101504.75;5124970;28;20023;-60
2022/06/20 08:52:46;;;;;;;4.30;1.77;;;;;;;22.04;42.79;101505.41;5106876;28;20488;-60
2022/06/20 08:55:14;;;;;;;2.88;1.30;;;;;;;22.05;42.61;101500.84;5124694;28;20026;-60
2022/06/20 08:58:01;;;;;;;4.50;2.00;;;;;;;22.07;42.43;101505.06;5125126;28;20087;-60
2022/06/20 09:00:44;;;;;;;3.83;1.67;;;;;;;22.10;42.70;101517.41;5126817;28;20055;-59
2022/06/20 09:03:31;;;;;;;4.90;1.70;;;;;;;22.09;42.34;101522.00;5115197;28;20028;-60
2022/06/20 09:06:18;;;;;;;4.05;2.15;;;;;;;22.09;42.27;101519.28;5108085;28;20058;-60
2022/06/20 09:09:16;;;;;;;4.53;1.88;;;;;;;22.09;42.06;101519.28;5108245;28;20031;-60
2022/06/20 09:11:56;;;;;;;4.53;1.60;;;;;;;22.09;42.22;101519.28;5025490;28;20041;-59
2022/06/20 09:14:52;;;;;;;3.15;1.40;;;;;;;22.10;42.28;101523.69;5045397;28;20037;-60
2022/06/20 09:17:45;;;;;;;3.15;1.40;;;;;;;22.11;42.15;101525.34;5045182;28;20091;-60
2022/06/20 09:20:13;;;;;;;4.95;2.00;;;;;;;22.12;42.26;101518.94;5045106;28;20025;-60
2022/06/20 09:22:53;;;;;;;3.10;1.35;;;;;;;22.14;42.19;101529.63;5045470;28;20041;-60
2022/06/20 09:25:18;;;;;;;6.95;2.05;;;;;;;22.15;41.89;101525.88;5044966;28;20028;-60
2022/06/20 09:27:51;;;;;;;4.40;2.00;;;;;;;22.17;41.76;101532.84;5045329;28;20025;-60
2022/06/20 09:30:33;;;;;;;3.55;1.63;;;;;;;22.20;41.80;101527.03;5044678;28;20051;-59
2022/06/20 09:33:07;;;;;;;5.05;2.20;;;;;;;22.21;41.48;101528.72;5034727;28;20061;-60
2022/06/20 09:36:02;;;;;;;4.03;2.15;;;;;;;22.24;41.98;101534.81;5025024;28;20046;-60
2022/06/20 09:38:46;;;;;;;8.52;2.22;;;;;;;22.25;41.64;101526.50;5025209;28;20022;-60
2022/06/20 09:41:15;;;;;;;5.72;1.90;;;;;;;22.26;41.22;101530.94;5025007;28;20029;-60
2022/06/20 09:43:51;;;;;;;4.28;2.28;;;;;;;22.25;40.97;101525.66;5008120;28;20541;-60
2022/06/20 09:46:41;;;;;;;4.70;2.00;;;;;;;22.28;41.03;101536.16;5024764;28;20034;-60
2022/06/20 09:49:27;;;;;;;3.85;1.40;;;;;;;22.31;41.12;101535.81;5085950;28;20032;-59
2022/06/20 09:52:05;;;;;;;5.60;2.10;;;;;;;22.32;40.70;101541.06;5107439;28;20156;-59
2022/06/20 09:54:36;;;;;;;3.78;1.73;;;;;;;22.34;40.70;101533.56;5107604;28;20020;-59
2022/06/20 09:57:49;;;;;;;2.63;1.40;;;;;;;22.36;40.43;101541.53;5108136;28;20030;-60
2022/06/20 10:00:21;;;;;;;3.25;1.77;;;;;;;22.37;40.38;101543.22;5117231;28;20020;-60
2022/06/20 10:02:57;;;;;;;5.30;1.92;;;;;;;22.39;40.84;101554.75;5100313;28;20058;-57
2022/06/20 10:05:40;;;;;;;3.38;1.42;;;;;;;22.41;40.55;101544.56;5100064;28;20015;-60
2022/06/20 10:08:14;;;;;;;4.13;1.35;;;;;;;22.41;40.60;101555.41;5113197;28;20024;-56
2022/06/20 10:10:45;;;;;;;3.50;1.65;;;;;;;22.41;40.91;101555.41;5115309;28;20461;-60
2022/06/20 10:13:19;;;;;;;2.92;1.30;;;;;;;22.37;40.96;101551.34;5108602;28;20469;-59
2022/06/20 10:15:49;;;;;;;2.90;1.38;;;;;;;22.40;40.83;101554.56;5108403;28;20468;-60
2022/06/20 10:18:29;;;;;;;2.47;1.20;;;;;;;22.41;40.96;101563.53;5109055;28;20056;-60
2022/06/20 10:21:22;;;;;;;2.28;1.40;;;;;;;22.42;41.10;101559.78;5108792;28;20479;-60
2022/06/20 10:24:09;;;;;;;3.40;1.50;;;;;;;22.38;41.10;101553.88;5127312;28;20045;-60
2022/06/20 10:26:49;;;;;;;4.25;1.58;;;;;;;22.44;40.94;101552.34;5126844;28;20065;-60
2022/06/20 10:29:33;;;;;;;3.38;1.38;;;;;;;22.45;41.01;101567.59;5126952;28;20022;-60
2022/06/20 10:32:47;;;;;;;2.67;1.20;;;;;;;22.48;40.67;101564.53;5103833;28;20023;-60
2022/06/20 10:35:17;;;;;;;3.45;1.35;;;;;;;22.47;40.74;101562.81;5088595;28;20035;-60
2022/06/20 10:38:08;;;;;;;2.90;1.08;;;;;;;22.52;40.50;101571.28;5106410;28;20393;-60
2022/06/20 10:40:55;;;;;;;2.90;1.67;;;;;;;22.53;40.43;101566.72;5088588;28;20027;-59
2022/06/20 10:43:42;;;;;;;3.03;1.15;;;;;;;22.53;40.63;101561.28;5105699;28;20075;-60
2022/06/20 10:46:25;;;;;;;1.88;1.17;;;;;;;22.49;40.90;101568.91;5087874;28;20472;-59
2022/06/20 10:49:15;;;;;;;3.25;1.27;;;;;;;22.57;40.51;101571.59;5088586;28;20016;-60
2022/06/20 10:52:00;;;;;;;4.25;1.33;;;;;;;22.58;40.55;101591.41;5088388;28;20031;-60
2022/06/20 10:54:49;;;;;;;3.10;1.60;;;;;;;22.59;40.45;101582.25;5106431;28;20091;-59
2022/06/20 10:57:39;;;;;;;3.28;1.67;;;;;;;22.61;40.75;101572.94;5106079;28;20027;-61
2022/06/20 11:00:10;;;;;;;3.97;1.40;;;;;;;22.61;40.97;101570.22;5105889;28;20092;-60
2022/06/20 11:02:54;;;;;;;3.22;1.23;;;;;;;22.64;40.65;101578.00;5095277;28;20032;-60
2022/06/20 11:05:39;;;;;;;3.25;1.42;;;;;;;22.66;40.60;101575.94;5105787;28;20020;-60
2022/06/20 11:08:30;;;;;;;3.45;1.67;;;;;;;22.66;40.80;101573.22;5087984;28;20026;-60
2022/06/20 11:11:04;;;;;;;2.72;1.25;;;;;;;22.67;40.94;101583.03;5116746;28;20037;-60
2022/06/20 11:13:37;;;;;;;2.65;1.42;;;;;;;22.68;40.89;101583.88;5125649;28;20051;-59
2022/06/20 11:16:26;;;;;;;3.67;1.23;;;;;;;22.70;40.82;101587.28;5125708;28;20031;-60
2022/06/20 11:19:07;;;;;;;3.72;1.10;;;;;;;22.71;40.84;101589.81;5107794;28;20055;-60
2022/06/20 11:21:52;;;;;;;2.03;1.00;;;;;;;22.76;40.92;101596.56;5126192;28;20031;-59
2022/06/20 11:24:28;;;;;;;5.43;1.50;;;;;;;22.77;40.80;101585.56;5125052;28;20031;-60
2022/06/20 11:27:14;;;;;;;2.80;1.00;;;;;;;22.77;40.74;101590.97;5108052;28;20027;-60
2022/06/20 11:29:48;;;;;;;2.65;1.20;;;;;;;22.77;40.90;101593.69;5126213;28;20023;-60
2022/06/20 11:32:24;;;;;;;3.08;1.25;;;;;;;22.76;40.62;101594.69;5109040;28;20055;-60
2022/06/20 11:35:03;;;;;;;2.67;0.95;;;;;;;22.76;40.57;101594.69;5087288;28;20115;-60
2022/06/20 11:37:44;;;;;;;5.95;1.38;;;;;;;22.74;40.60;101596.75;5087484;28;20035;-59
2022/06/20 11:40:37;;;;;;;2.72;1.08;;;;;;;22.73;40.52;101588.81;5087683;28;20032;-59
2022/06/20 11:43:29;;;;;;;2.97;1.08;;;;;;;22.71;40.87;101589.81;5105243;28;20052;-60
2022/06/20 11:46:10;;;;;;;2.83;1.20;;;;;;;22.69;40.89;101591.03;5086884;28;20045;-60
2022/06/20 11:48:58;;;;;;;3.75;1.55;;;;;;;22.70;40.76;101598.13;5105603;28;20012;-60
2022/06/20 11:51:40;;;;;;;4.13;1.48;;;;;;;22.70;40.33;101593.53;5087100;28;20031;-60
2022/06/20 11:54:27;;;;;;;3.72;1.00;;;;;;;22.68;40.71;101594.72;5105061;28;20020;-59
2022/06/20 11:56:58;;;;;;;3.83;1.30;;;;;;;22.67;40.63;101599.31;5063730;28;20045;-60
2022/06/20 11:59:45;;;;;;;4.60;1.20;;;;;;;22.67;40.41;101595.75;5087008;28;20651;-60
2022/06/20 12:02:35;;;;;;;2.83;1.33;;;;;;;22.67;40.82;101599.31;5091522;28;20040;-60
2022/06/20 12:05:06;;;;;;;3.30;1.42;;;;;;;22.70;40.67;101608.97;5105077;28;20136;-60